sensor_id;sensor_type;location;lat;lon;timestamp;P1;durP1;ratioP1;P2;durP2;ratioP2
10641;SDS011;5369;49.586;8.646;2022-12-10T00:00:43;19.47;;;13.47;;
10641;SDS011;5369;49.586;8.646;2022-12-10T00:03:09;22.50;;;15.83;;
10641;SDS011;5369;49.586;8.646;2022-12-10T00:05:36;20.47;;;13.87;;
10641;SDS011;5369;49.586;8.646;2022-12-10T00:08:02;21.00;;;15.30;;
10641;SDS011;5369;49.586;8.646;2022-12-10T00:10:28;19.03;;;13.40;;
10641;SDS011;5369;49.586;8.646;2022-12-10T00:12:54;19.10;;;13.20;;
10641;SDS011;5369;49.586;8.646;2022-12-10T00:15:20;18.37;;;12.77;;
10641;SDS011;5369;49.586;8.646;2022-12-10T00:17:47;15.80;;;11.70;;
10641;SDS011;5369;49.586;8.646;2022-12-10T00:20:13;16.43;;;11.70;;
10641;SDS011;5369;49.586;8.646;2022-12-10T00:22:39;21.10;;;14.37;;
10641;SDS011;5369;49.586;8.646;2022-12-10T00:25:05;18.93;;;13.47;;
10641;SDS011;5369;49.586;8.646;2022-12-10T00:27:31;20.50;;;14.50;;
10641;SDS011;5369;49.586;8.646;2022-12-10T00:29:59;21.30;;;14.47;;
10641;SDS011;5369;49.586;8.646;2022-12-10T00:32:25;22.80;;;15.47;;
10641;SDS011;5369;49.586;8.646;2022-12-10T00:34:51;18.70;;;13.63;;
10641;SDS011;5369;49.586;8.646;2022-12-10T00:37:21;21.90;;;14.20;;
10641;SDS011;5369;49.586;8.646;2022-12-10T00:39:47;22.37;;;14.67;;
10641;SDS011;5369;49.586;8.646;2022-12-10T00:42:14;21.07;;;14.73;;
10641;SDS011;5369;49.586;8.646;2022-12-10T00:44:40;19.50;;;13.80;;
10641;SDS011;5369;49.586;8.646;2022-12-10T00:47:07;19.67;;;13.53;;
10641;SDS011;5369;49.586;8.646;2022-12-10T00:49:33;18.07;;;12.53;;
10641;SDS011;5369;49.586;8.646;2022-12-10T00:51:59;17.60;;;12.23;;
10641;SDS011;5369;49.586;8.646;2022-12-10T00:54:25;18.57;;;12.97;;
10641;SDS011;5369;49.586;8.646;2022-12-10T00:56:56;15.33;;;11.27;;
10641;SDS011;5369;49.586;8.646;2022-12-10T00:59:23;17.97;;;12.60;;
10641;SDS011;5369;49.586;8.646;2022-12-10T01:01:49;18.73;;;13.40;;
10641;SDS011;5369;49.586;8.646;2022-12-10T01:04:16;21.77;;;15.20;;
10641;SDS011;5369;49.586;8.646;2022-12-10T01:06:44;22.80;;;15.20;;
10641;SDS011;5369;49.586;8.646;2022-12-10T01:09:11;27.87;;;17.87;;
10641;SDS011;5369;49.586;8.646;2022-12-10T01:11:39;22.50;;;16.03;;
10641;SDS011;5369;49.586;8.646;2022-12-10T01:14:06;26.27;;;16.77;;
10641;SDS011;5369;49.586;8.646;2022-12-10T01:16:33;22.57;;;16.07;;
10641;SDS011;5369;49.586;8.646;2022-12-10T01:18:59;25.87;;;16.93;;
10641;SDS011;5369;49.586;8.646;2022-12-10T01:21:27;25.27;;;16.53;;
10641;SDS011;5369;49.586;8.646;2022-12-10T01:23:54;23.67;;;15.60;;
10641;SDS011;5369;49.586;8.646;2022-12-10T01:26:22;24.00;;;16.03;;
10641;SDS011;5369;49.586;8.646;2022-12-10T01:28:49;22.77;;;16.37;;
10641;SDS011;5369;49.586;8.646;2022-12-10T01:31:16;25.80;;;15.87;;
10641;SDS011;5369;49.586;8.646;2022-12-10T01:33:43;23.77;;;15.83;;
10641;SDS011;5369;49.586;8.646;2022-12-10T01:36:10;25.20;;;15.83;;
10641;SDS011;5369;49.586;8.646;2022-12-10T01:38:38;23.60;;;15.77;;
10641;SDS011;5369;49.586;8.646;2022-12-10T01:41:05;25.20;;;16.20;;
10641;SDS011;5369;49.586;8.646;2022-12-10T01:43:48;26.80;;;17.70;;
10641;SDS011;5369;49.586;8.646;2022-12-10T01:46:14;24.63;;;15.87;;
10641;SDS011;5369;49.586;8.646;2022-12-10T01:48:40;28.33;;;17.47;;
10641;SDS011;5369;49.586;8.646;2022-12-10T01:51:07;26.00;;;16.73;;
10641;SDS011;5369;49.586;8.646;2022-12-10T01:53:33;25.87;;;16.17;;
10641;SDS011;5369;49.586;8.646;2022-12-10T01:55:59;23.27;;;16.20;;
10641;SDS011;5369;49.586;8.646;2022-12-10T01:58:25;24.93;;;16.50;;
10641;SDS011;5369;49.586;8.646;2022-12-10T02:03:20;24.57;;;15.60;;
10641;SDS011;5369;49.586;8.646;2022-12-10T02:06:01;24.63;;;15.70;;
10641;SDS011;5369;49.586;8.646;2022-12-10T02:08:37;24.93;;;16.83;;
10641;SDS011;5369;49.586;8.646;2022-12-10T02:13:41;27.23;;;16.70;;
10641;SDS011;5369;49.586;8.646;2022-12-10T02:16:14;26.33;;;17.47;;
10641;SDS011;5369;49.586;8.646;2022-12-10T02:21:22;27.57;;;18.07;;
10641;SDS011;5369;49.586;8.646;2022-12-10T02:23:50;26.03;;;17.03;;
10641;SDS011;5369;49.586;8.646;2022-12-10T02:28:48;27.17;;;17.27;;
10641;SDS011;5369;49.586;8.646;2022-12-10T02:31:18;27.53;;;18.17;;
10641;SDS011;5369;49.586;8.646;2022-12-10T02:33:46;26.77;;;17.23;;
10641;SDS011;5369;49.586;8.646;2022-12-10T02:36:14;24.13;;;16.50;;
10641;SDS011;5369;49.586;8.646;2022-12-10T02:38:41;25.63;;;16.70;;
10641;SDS011;5369;49.586;8.646;2022-12-10T02:41:08;26.50;;;17.73;;
10641;SDS011;5369;49.586;8.646;2022-12-10T02:43:39;25.67;;;16.33;;
10641;SDS011;5369;49.586;8.646;2022-12-10T02:46:06;25.63;;;16.60;;
10641;SDS011;5369;49.586;8.646;2022-12-10T02:48:33;24.67;;;16.33;;
10641;SDS011;5369;49.586;8.646;2022-12-10T02:50:59;24.60;;;16.67;;
10641;SDS011;5369;49.586;8.646;2022-12-10T02:53:26;26.67;;;17.23;;
10641;SDS011;5369;49.586;8.646;2022-12-10T02:58:28;23.97;;;16.00;;
10641;SDS011;5369;49.586;8.646;2022-12-10T03:01:00;22.47;;;15.13;;
10641;SDS011;5369;49.586;8.646;2022-12-10T03:03:38;24.73;;;16.63;;
10641;SDS011;5369;49.586;8.646;2022-12-10T03:09:12;25.23;;;16.70;;
10641;SDS011;5369;49.586;8.646;2022-12-10T03:11:42;25.43;;;16.23;;
10641;SDS011;5369;49.586;8.646;2022-12-10T03:14:13;27.53;;;17.60;;
10641;SDS011;5369;49.586;8.646;2022-12-10T03:16:48;27.57;;;17.43;;
10641;SDS011;5369;49.586;8.646;2022-12-10T03:19:16;27.13;;;17.20;;
10641;SDS011;5369;49.586;8.646;2022-12-10T03:21:43;28.77;;;17.97;;
10641;SDS011;5369;49.586;8.646;2022-12-10T03:24:10;29.63;;;19.37;;
10641;SDS011;5369;49.586;8.646;2022-12-10T03:26:37;29.10;;;19.43;;
10641;SDS011;5369;49.586;8.646;2022-12-10T03:29:06;25.73;;;17.80;;
10641;SDS011;5369;49.586;8.646;2022-12-10T03:31:34;26.90;;;18.33;;
10641;SDS011;5369;49.586;8.646;2022-12-10T03:34:02;27.73;;;18.27;;
10641;SDS011;5369;49.586;8.646;2022-12-10T03:36:28;27.87;;;18.63;;
10641;SDS011;5369;49.586;8.646;2022-12-10T03:38:55;30.80;;;19.83;;
10641;SDS011;5369;49.586;8.646;2022-12-10T03:41:21;28.73;;;18.97;;
10641;SDS011;5369;49.586;8.646;2022-12-10T03:43:55;27.70;;;18.50;;
10641;SDS011;5369;49.586;8.646;2022-12-10T03:46:22;27.70;;;18.13;;
10641;SDS011;5369;49.586;8.646;2022-12-10T03:48:48;29.57;;;18.40;;
10641;SDS011;5369;49.586;8.646;2022-12-10T03:51:14;27.93;;;17.50;;
10641;SDS011;5369;49.586;8.646;2022-12-10T03:53:42;26.73;;;17.53;;
10641;SDS011;5369;49.586;8.646;2022-12-10T03:56:08;26.97;;;16.90;;
10641;SDS011;5369;49.586;8.646;2022-12-10T03:58:34;26.10;;;16.77;;
10641;SDS011;5369;49.586;8.646;2022-12-10T04:01:01;26.10;;;17.27;;
10641;SDS011;5369;49.586;8.646;2022-12-10T04:03:28;23.47;;;15.10;;
10641;SDS011;5369;49.586;8.646;2022-12-10T04:05:54;26.23;;;17.87;;
10641;SDS011;5369;49.586;8.646;2022-12-10T04:08:20;27.33;;;18.03;;
10641;SDS011;5369;49.586;8.646;2022-12-10T04:10:46;23.43;;;15.83;;
10641;SDS011;5369;49.586;8.646;2022-12-10T04:13:12;23.57;;;16.27;;
10641;SDS011;5369;49.586;8.646;2022-12-10T04:15:57;26.13;;;15.83;;
10641;SDS011;5369;49.586;8.646;2022-12-10T04:18:42;25.23;;;16.23;;
10641;SDS011;5369;49.586;8.646;2022-12-10T04:21:08;25.33;;;17.07;;
10641;SDS011;5369;49.586;8.646;2022-12-10T04:23:53;23.60;;;15.70;;
10641;SDS011;5369;49.586;8.646;2022-12-10T04:26:37;25.30;;;16.67;;
10641;SDS011;5369;49.586;8.646;2022-12-10T04:29:21;24.73;;;16.70;;
10641;SDS011;5369;49.586;8.646;2022-12-10T04:31:47;23.80;;;16.53;;
10641;SDS011;5369;49.586;8.646;2022-12-10T04:34:14;26.73;;;17.77;;
10641;SDS011;5369;49.586;8.646;2022-12-10T04:36:40;24.73;;;16.20;;
10641;SDS011;5369;49.586;8.646;2022-12-10T04:39:06;26.33;;;16.97;;
10641;SDS011;5369;49.586;8.646;2022-12-10T04:41:32;23.90;;;16.07;;
10641;SDS011;5369;49.586;8.646;2022-12-10T04:43:58;25.20;;;16.53;;
10641;SDS011;5369;49.586;8.646;2022-12-10T04:46:25;26.00;;;16.90;;
10641;SDS011;5369;49.586;8.646;2022-12-10T04:48:51;24.83;;;16.33;;
10641;SDS011;5369;49.586;8.646;2022-12-10T04:51:17;24.67;;;16.80;;
10641;SDS011;5369;49.586;8.646;2022-12-10T04:53:43;22.40;;;14.90;;
10641;SDS011;5369;49.586;8.646;2022-12-10T04:56:09;24.77;;;16.83;;
10641;SDS011;5369;49.586;8.646;2022-12-10T04:58:35;26.60;;;16.53;;
10641;SDS011;5369;49.586;8.646;2022-12-10T05:01:02;25.63;;;16.47;;
10641;SDS011;5369;49.586;8.646;2022-12-10T05:03:29;25.50;;;16.40;;
10641;SDS011;5369;49.586;8.646;2022-12-10T05:05:55;25.97;;;16.37;;
10641;SDS011;5369;49.586;8.646;2022-12-10T05:08:21;24.57;;;16.07;;
10641;SDS011;5369;49.586;8.646;2022-12-10T05:10:48;28.53;;;18.17;;
10641;SDS011;5369;49.586;8.646;2022-12-10T05:13:14;26.67;;;16.80;;
10641;SDS011;5369;49.586;8.646;2022-12-10T05:15:40;25.20;;;17.17;;
10641;SDS011;5369;49.586;8.646;2022-12-10T05:18:06;25.87;;;16.93;;
10641;SDS011;5369;49.586;8.646;2022-12-10T05:20:32;25.60;;;17.23;;
10641;SDS011;5369;49.586;8.646;2022-12-10T05:22:58;28.60;;;18.30;;
10641;SDS011;5369;49.586;8.646;2022-12-10T05:25:43;31.23;;;19.10;;
10641;SDS011;5369;49.586;8.646;2022-12-10T05:28:19;28.80;;;19.23;;
10641;SDS011;5369;49.586;8.646;2022-12-10T05:30:45;30.37;;;19.03;;
10641;SDS011;5369;49.586;8.646;2022-12-10T05:33:11;25.93;;;16.93;;
10641;SDS011;5369;49.586;8.646;2022-12-10T05:35:37;31.00;;;19.13;;
10641;SDS011;5369;49.586;8.646;2022-12-10T05:38:04;25.27;;;16.93;;
10641;SDS011;5369;49.586;8.646;2022-12-10T05:40:33;25.40;;;17.17;;
10641;SDS011;5369;49.586;8.646;2022-12-10T05:43:00;25.50;;;17.07;;
10641;SDS011;5369;49.586;8.646;2022-12-10T05:45:26;27.07;;;18.17;;
10641;SDS011;5369;49.586;8.646;2022-12-10T05:47:52;27.50;;;17.70;;
10641;SDS011;5369;49.586;8.646;2022-12-10T05:50:19;25.90;;;16.90;;
10641;SDS011;5369;49.586;8.646;2022-12-10T05:52:46;26.73;;;16.90;;
10641;SDS011;5369;49.586;8.646;2022-12-10T05:55:12;28.13;;;18.57;;
10641;SDS011;5369;49.586;8.646;2022-12-10T05:57:38;32.23;;;19.97;;
10641;SDS011;5369;49.586;8.646;2022-12-10T06:00:05;30.37;;;19.17;;
10641;SDS011;5369;49.586;8.646;2022-12-10T06:02:37;26.33;;;17.20;;
10641;SDS011;5369;49.586;8.646;2022-12-10T06:05:03;28.53;;;18.13;;
10641;SDS011;5369;49.586;8.646;2022-12-10T06:07:30;30.23;;;19.63;;
10641;SDS011;5369;49.586;8.646;2022-12-10T06:09:56;27.93;;;17.90;;
10641;SDS011;5369;49.586;8.646;2022-12-10T06:12:22;27.20;;;17.97;;
10641;SDS011;5369;49.586;8.646;2022-12-10T06:14:48;29.63;;;19.07;;
10641;SDS011;5369;49.586;8.646;2022-12-10T06:17:15;31.23;;;18.70;;
10641;SDS011;5369;49.586;8.646;2022-12-10T06:19:41;28.27;;;19.77;;
10641;SDS011;5369;49.586;8.646;2022-12-10T06:22:07;27.47;;;18.23;;
10641;SDS011;5369;49.586;8.646;2022-12-10T06:24:33;29.17;;;18.10;;
10641;SDS011;5369;49.586;8.646;2022-12-10T06:26:59;25.20;;;16.70;;
10641;SDS011;5369;49.586;8.646;2022-12-10T06:29:25;27.10;;;17.63;;
10641;SDS011;5369;49.586;8.646;2022-12-10T06:31:51;29.50;;;18.17;;
10641;SDS011;5369;49.586;8.646;2022-12-10T06:34:18;27.43;;;18.47;;
10641;SDS011;5369;49.586;8.646;2022-12-10T06:36:44;28.10;;;18.10;;
10641;SDS011;5369;49.586;8.646;2022-12-10T06:39:10;31.97;;;23.00;;
10641;SDS011;5369;49.586;8.646;2022-12-10T06:41:36;29.93;;;20.53;;
10641;SDS011;5369;49.586;8.646;2022-12-10T06:44:06;29.95;;;22.10;;
10641;SDS011;5369;49.586;8.646;2022-12-10T06:46:32;31.37;;;19.73;;
10641;SDS011;5369;49.586;8.646;2022-12-10T06:48:58;31.67;;;19.67;;
10641;SDS011;5369;49.586;8.646;2022-12-10T06:51:25;26.23;;;17.10;;
10641;SDS011;5369;49.586;8.646;2022-12-10T06:53:51;24.77;;;17.07;;
10641;SDS011;5369;49.586;8.646;2022-12-10T06:56:18;27.77;;;18.10;;
10641;SDS011;5369;49.586;8.646;2022-12-10T06:58:45;28.23;;;19.33;;
10641;SDS011;5369;49.586;8.646;2022-12-10T07:01:13;27.87;;;17.97;;
10641;SDS011;5369;49.586;8.646;2022-12-10T07:03:39;29.67;;;19.47;;
10641;SDS011;5369;49.586;8.646;2022-12-10T07:06:06;29.63;;;18.53;;
10641;SDS011;5369;49.586;8.646;2022-12-10T07:08:33;30.63;;;19.73;;
10641;SDS011;5369;49.586;8.646;2022-12-10T07:11:02;33.23;;;22.20;;
10641;SDS011;5369;49.586;8.646;2022-12-10T07:13:29;29.43;;;20.10;;
10641;SDS011;5369;49.586;8.646;2022-12-10T07:15:55;29.23;;;18.43;;
10641;SDS011;5369;49.586;8.646;2022-12-10T07:18:21;31.07;;;19.30;;
10641;SDS011;5369;49.586;8.646;2022-12-10T07:20:47;29.23;;;18.70;;
10641;SDS011;5369;49.586;8.646;2022-12-10T07:23:13;30.30;;;18.00;;
10641;SDS011;5369;49.586;8.646;2022-12-10T07:25:39;29.57;;;19.77;;
10641;SDS011;5369;49.586;8.646;2022-12-10T07:28:06;37.13;;;25.17;;
10641;SDS011;5369;49.586;8.646;2022-12-10T07:30:32;33.20;;;21.73;;
10641;SDS011;5369;49.586;8.646;2022-12-10T07:32:58;31.30;;;21.27;;
10641;SDS011;5369;49.586;8.646;2022-12-10T07:35:24;34.30;;;22.43;;
10641;SDS011;5369;49.586;8.646;2022-12-10T07:37:51;29.93;;;19.50;;
10641;SDS011;5369;49.586;8.646;2022-12-10T07:40:17;31.50;;;19.53;;
10641;SDS011;5369;49.586;8.646;2022-12-10T07:42:43;32.00;;;21.33;;
10641;SDS011;5369;49.586;8.646;2022-12-10T07:45:09;37.23;;;22.57;;
10641;SDS011;5369;49.586;8.646;2022-12-10T07:47:36;30.30;;;19.80;;
10641;SDS011;5369;49.586;8.646;2022-12-10T07:50:03;32.63;;;20.20;;
10641;SDS011;5369;49.586;8.646;2022-12-10T07:52:29;31.10;;;19.67;;
10641;SDS011;5369;49.586;8.646;2022-12-10T07:54:55;26.37;;;17.87;;
10641;SDS011;5369;49.586;8.646;2022-12-10T07:57:21;33.33;;;20.67;;
10641;SDS011;5369;49.586;8.646;2022-12-10T07:59:47;27.97;;;17.77;;
10641;SDS011;5369;49.586;8.646;2022-12-10T08:02:14;26.67;;;18.10;;
10641;SDS011;5369;49.586;8.646;2022-12-10T08:04:40;25.83;;;16.80;;
10641;SDS011;5369;49.586;8.646;2022-12-10T08:07:06;26.43;;;16.03;;
10641;SDS011;5369;49.586;8.646;2022-12-10T08:09:33;26.73;;;17.70;;
10641;SDS011;5369;49.586;8.646;2022-12-10T08:11:59;26.67;;;17.60;;
10641;SDS011;5369;49.586;8.646;2022-12-10T08:14:25;23.13;;;15.70;;
10641;SDS011;5369;49.586;8.646;2022-12-10T08:16:51;24.73;;;16.60;;
10641;SDS011;5369;49.586;8.646;2022-12-10T08:19:18;23.97;;;16.20;;
10641;SDS011;5369;49.586;8.646;2022-12-10T08:21:44;25.17;;;17.50;;
10641;SDS011;5369;49.586;8.646;2022-12-10T08:24:10;28.53;;;17.33;;
10641;SDS011;5369;49.586;8.646;2022-12-10T08:26:36;27.90;;;18.33;;
10641;SDS011;5369;49.586;8.646;2022-12-10T08:29:03;24.93;;;16.50;;
10641;SDS011;5369;49.586;8.646;2022-12-10T08:31:30;24.93;;;17.03;;
10641;SDS011;5369;49.586;8.646;2022-12-10T08:33:56;25.00;;;17.13;;
10641;SDS011;5369;49.586;8.646;2022-12-10T08:36:23;22.20;;;15.57;;
10641;SDS011;5369;49.586;8.646;2022-12-10T08:38:49;25.63;;;16.57;;
10641;SDS011;5369;49.586;8.646;2022-12-10T08:41:17;23.17;;;15.40;;
10641;SDS011;5369;49.586;8.646;2022-12-10T08:43:44;23.63;;;15.97;;
10641;SDS011;5369;49.586;8.646;2022-12-10T08:46:11;26.67;;;16.17;;
10641;SDS011;5369;49.586;8.646;2022-12-10T08:48:39;22.07;;;16.00;;
10641;SDS011;5369;49.586;8.646;2022-12-10T08:51:06;25.87;;;17.50;;
10641;SDS011;5369;49.586;8.646;2022-12-10T08:53:34;23.70;;;16.33;;
10641;SDS011;5369;49.586;8.646;2022-12-10T08:56:00;27.00;;;17.40;;
10641;SDS011;5369;49.586;8.646;2022-12-10T08:58:26;22.67;;;16.17;;
10641;SDS011;5369;49.586;8.646;2022-12-10T09:00:53;23.37;;;15.73;;
10641;SDS011;5369;49.586;8.646;2022-12-10T09:03:19;25.87;;;17.17;;
10641;SDS011;5369;49.586;8.646;2022-12-10T09:05:46;23.60;;;16.53;;
10641;SDS011;5369;49.586;8.646;2022-12-10T09:08:13;25.40;;;15.77;;
10641;SDS011;5369;49.586;8.646;2022-12-10T09:10:39;22.63;;;15.73;;
10641;SDS011;5369;49.586;8.646;2022-12-10T09:13:06;24.57;;;15.90;;
10641;SDS011;5369;49.586;8.646;2022-12-10T09:15:32;26.23;;;15.30;;
10641;SDS011;5369;49.586;8.646;2022-12-10T09:17:59;23.57;;;16.00;;
10641;SDS011;5369;49.586;8.646;2022-12-10T09:20:25;22.00;;;14.80;;
10641;SDS011;5369;49.586;8.646;2022-12-10T09:22:51;21.40;;;14.87;;
10641;SDS011;5369;49.586;8.646;2022-12-10T09:25:18;23.77;;;15.07;;
10641;SDS011;5369;49.586;8.646;2022-12-10T09:27:46;22.67;;;15.77;;
10641;SDS011;5369;49.586;8.646;2022-12-10T09:30:13;23.33;;;15.47;;
10641;SDS011;5369;49.586;8.646;2022-12-10T09:32:39;23.63;;;15.50;;
10641;SDS011;5369;49.586;8.646;2022-12-10T09:35:07;25.03;;;16.53;;
10641;SDS011;5369;49.586;8.646;2022-12-10T09:37:33;23.40;;;15.27;;
10641;SDS011;5369;49.586;8.646;2022-12-10T09:39:59;23.83;;;15.90;;
10641;SDS011;5369;49.586;8.646;2022-12-10T09:45:04;20.10;;;14.20;;
10641;SDS011;5369;49.586;8.646;2022-12-10T09:50:16;23.30;;;16.10;;
10641;SDS011;5369;49.586;8.646;2022-12-10T09:52:45;23.43;;;16.07;;
10641;SDS011;5369;49.586;8.646;2022-12-10T09:55:17;24.20;;;16.30;;
10641;SDS011;5369;49.586;8.646;2022-12-10T09:58:08;23.90;;;16.10;;
10641;SDS011;5369;49.586;8.646;2022-12-10T10:00:38;22.17;;;15.30;;
10641;SDS011;5369;49.586;8.646;2022-12-10T10:03:05;24.97;;;15.47;;
10641;SDS011;5369;49.586;8.646;2022-12-10T10:05:35;22.30;;;15.37;;
10641;SDS011;5369;49.586;8.646;2022-12-10T10:08:03;23.93;;;15.80;;
10641;SDS011;5369;49.586;8.646;2022-12-10T10:15:36;21.73;;;15.27;;
10641;SDS011;5369;49.586;8.646;2022-12-10T10:18:14;22.37;;;15.53;;
10641;SDS011;5369;49.586;8.646;2022-12-10T10:20:43;26.23;;;16.83;;
10641;SDS011;5369;49.586;8.646;2022-12-10T10:23:11;23.07;;;16.03;;
10641;SDS011;5369;49.586;8.646;2022-12-10T10:25:38;28.43;;;17.63;;
10641;SDS011;5369;49.586;8.646;2022-12-10T10:28:05;25.57;;;17.07;;
10641;SDS011;5369;49.586;8.646;2022-12-10T10:30:31;26.70;;;17.23;;
10641;SDS011;5369;49.586;8.646;2022-12-10T10:32:58;24.83;;;16.57;;
10641;SDS011;5369;49.586;8.646;2022-12-10T10:35:34;25.17;;;15.67;;
10641;SDS011;5369;49.586;8.646;2022-12-10T10:38:08;25.13;;;16.50;;
10641;SDS011;5369;49.586;8.646;2022-12-10T10:40:40;23.40;;;16.20;;
10641;SDS011;5369;49.586;8.646;2022-12-10T10:43:08;25.43;;;16.70;;
10641;SDS011;5369;49.586;8.646;2022-12-10T10:45:40;21.90;;;16.13;;
10641;SDS011;5369;49.586;8.646;2022-12-10T10:48:09;25.47;;;16.57;;
10641;SDS011;5369;49.586;8.646;2022-12-10T10:50:38;22.87;;;15.80;;
10641;SDS011;5369;49.586;8.646;2022-12-10T10:53:19;23.67;;;16.70;;
10641;SDS011;5369;49.586;8.646;2022-12-10T10:55:46;23.77;;;15.97;;
10641;SDS011;5369;49.586;8.646;2022-12-10T10:58:19;22.77;;;14.97;;
10641;SDS011;5369;49.586;8.646;2022-12-10T11:00:55;22.60;;;16.00;;
10641;SDS011;5369;49.586;8.646;2022-12-10T11:03:23;21.47;;;15.30;;
10641;SDS011;5369;49.586;8.646;2022-12-10T11:05:49;21.13;;;15.37;;
10641;SDS011;5369;49.586;8.646;2022-12-10T11:08:16;23.17;;;15.87;;
10641;SDS011;5369;49.586;8.646;2022-12-10T11:10:47;23.23;;;16.27;;
10641;SDS011;5369;49.586;8.646;2022-12-10T11:13:19;23.83;;;16.50;;
10641;SDS011;5369;49.586;8.646;2022-12-10T11:15:47;23.80;;;16.60;;
10641;SDS011;5369;49.586;8.646;2022-12-10T11:23:29;22.03;;;16.00;;
10641;SDS011;5369;49.586;8.646;2022-12-10T11:25:57;24.10;;;16.77;;
10641;SDS011;5369;49.586;8.646;2022-12-10T11:33:51;24.53;;;16.40;;
10641;SDS011;5369;49.586;8.646;2022-12-10T11:36:31;24.20;;;16.47;;
10641;SDS011;5369;49.586;8.646;2022-12-10T11:41:48;21.20;;;15.67;;
10641;SDS011;5369;49.586;8.646;2022-12-10T11:46:58;21.90;;;15.67;;
10641;SDS011;5369;49.586;8.646;2022-12-10T11:49:31;21.33;;;15.27;;
10641;SDS011;5369;49.586;8.646;2022-12-10T11:52:06;23.53;;;15.30;;
10641;SDS011;5369;49.586;8.646;2022-12-10T11:54:48;20.90;;;14.87;;
10641;SDS011;5369;49.586;8.646;2022-12-10T12:00:00;21.20;;;15.33;;
10641;SDS011;5369;49.586;8.646;2022-12-10T12:02:43;20.90;;;15.17;;
10641;SDS011;5369;49.586;8.646;2022-12-10T12:12:59;21.27;;;14.67;;
10641;SDS011;5369;49.586;8.646;2022-12-10T12:20:41;20.00;;;14.73;;
10641;SDS011;5369;49.586;8.646;2022-12-10T12:25:57;21.83;;;15.33;;
10641;SDS011;5369;49.586;8.646;2022-12-10T12:28:45;21.67;;;15.13;;
10641;SDS011;5369;49.586;8.646;2022-12-10T12:31:20;19.90;;;14.80;;
10641;SDS011;5369;49.586;8.646;2022-12-10T12:36:50;22.63;;;15.37;;
10641;SDS011;5369;49.586;8.646;2022-12-10T12:44:22;21.60;;;15.27;;
10641;SDS011;5369;49.586;8.646;2022-12-10T12:46:50;20.73;;;14.73;;
10641;SDS011;5369;49.586;8.646;2022-12-10T12:49:37;19.80;;;15.03;;
10641;SDS011;5369;49.586;8.646;2022-12-10T12:52:12;20.93;;;15.37;;
10641;SDS011;5369;49.586;8.646;2022-12-10T12:54:40;21.33;;;15.07;;
10641;SDS011;5369;49.586;8.646;2022-12-10T13:02:39;20.77;;;14.80;;
10641;SDS011;5369;49.586;8.646;2022-12-10T13:05:27;21.80;;;15.60;;
10641;SDS011;5369;49.586;8.646;2022-12-10T13:10:53;18.83;;;14.50;;
10641;SDS011;5369;49.586;8.646;2022-12-10T13:15:52;23.37;;;15.03;;
10641;SDS011;5369;49.586;8.646;2022-12-10T13:18:20;21.70;;;15.40;;
10641;SDS011;5369;49.586;8.646;2022-12-10T13:20:47;22.23;;;16.03;;
10641;SDS011;5369;49.586;8.646;2022-12-10T13:31:06;22.40;;;16.23;;
10641;SDS011;5369;49.586;8.646;2022-12-10T13:36:19;20.63;;;15.23;;
10641;SDS011;5369;49.586;8.646;2022-12-10T13:39:11;19.23;;;14.07;;
10641;SDS011;5369;49.586;8.646;2022-12-10T13:41:42;20.67;;;14.57;;
10641;SDS011;5369;49.586;8.646;2022-12-10T13:44:47;21.87;;;14.33;;
10641;SDS011;5369;49.586;8.646;2022-12-10T13:49:59;21.43;;;14.67;;
10641;SDS011;5369;49.586;8.646;2022-12-10T13:52:26;21.03;;;14.73;;
10641;SDS011;5369;49.586;8.646;2022-12-10T13:57:50;19.17;;;13.43;;
10641;SDS011;5369;49.586;8.646;2022-12-10T14:00:22;17.43;;;13.20;;
10641;SDS011;5369;49.586;8.646;2022-12-10T14:05:43;19.03;;;14.40;;
10641;SDS011;5369;49.586;8.646;2022-12-10T14:08:20;19.53;;;13.70;;
10641;SDS011;5369;49.586;8.646;2022-12-10T14:10:49;17.47;;;13.57;;
10641;SDS011;5369;49.586;8.646;2022-12-10T14:13:16;19.60;;;14.27;;
10641;SDS011;5369;49.586;8.646;2022-12-10T14:15:50;18.80;;;13.70;;
10641;SDS011;5369;49.586;8.646;2022-12-10T14:18:17;17.90;;;13.20;;
10641;SDS011;5369;49.586;8.646;2022-12-10T14:20:47;16.03;;;12.20;;
10641;SDS011;5369;49.586;8.646;2022-12-10T14:23:25;17.80;;;12.87;;
10641;SDS011;5369;49.586;8.646;2022-12-10T14:25:58;16.47;;;12.37;;
10641;SDS011;5369;49.586;8.646;2022-12-10T14:28:25;16.97;;;12.07;;
10641;SDS011;5369;49.586;8.646;2022-12-10T14:30:51;17.17;;;11.87;;
10641;SDS011;5369;49.586;8.646;2022-12-10T14:33:18;14.73;;;11.27;;
10641;SDS011;5369;49.586;8.646;2022-12-10T14:35:47;18.90;;;11.70;;
10641;SDS011;5369;49.586;8.646;2022-12-10T14:38:18;16.80;;;12.20;;
10641;SDS011;5369;49.586;8.646;2022-12-10T14:40:45;16.50;;;12.07;;
10641;SDS011;5369;49.586;8.646;2022-12-10T14:43:13;15.77;;;11.97;;
10641;SDS011;5369;49.586;8.646;2022-12-10T14:45:53;15.87;;;11.77;;
10641;SDS011;5369;49.586;8.646;2022-12-10T14:48:21;14.80;;;11.40;;
10641;SDS011;5369;49.586;8.646;2022-12-10T14:50:48;15.77;;;11.60;;
10641;SDS011;5369;49.586;8.646;2022-12-10T14:53:15;14.67;;;10.77;;
10641;SDS011;5369;49.586;8.646;2022-12-10T14:55:42;14.20;;;10.80;;
10641;SDS011;5369;49.586;8.646;2022-12-10T14:58:11;14.23;;;10.63;;
10641;SDS011;5369;49.586;8.646;2022-12-10T15:00:40;14.43;;;10.47;;
10641;SDS011;5369;49.586;8.646;2022-12-10T15:03:07;15.43;;;11.17;;
10641;SDS011;5369;49.586;8.646;2022-12-10T15:05:34;15.13;;;10.90;;
10641;SDS011;5369;49.586;8.646;2022-12-10T15:08:02;14.07;;;10.30;;
10641;SDS011;5369;49.586;8.646;2022-12-10T15:10:32;16.10;;;11.27;;
10641;SDS011;5369;49.586;8.646;2022-12-10T15:12:59;15.00;;;10.20;;
10641;SDS011;5369;49.586;8.646;2022-12-10T15:15:38;16.83;;;12.00;;
10641;SDS011;5369;49.586;8.646;2022-12-10T15:18:38;15.40;;;10.83;;
10641;SDS011;5369;49.586;8.646;2022-12-10T15:23:31;20.37;;;14.87;;
10641;SDS011;5369;49.586;8.646;2022-12-10T15:26:04;19.17;;;13.30;;
10641;SDS011;5369;49.586;8.646;2022-12-10T15:28:31;16.93;;;12.07;;
10641;SDS011;5369;49.586;8.646;2022-12-10T15:31:43;15.53;;;11.50;;
10641;SDS011;5369;49.586;8.646;2022-12-10T15:33:54;16.23;;;11.60;;
10641;SDS011;5369;49.586;8.646;2022-12-10T15:36:24;15.93;;;11.60;;
10641;SDS011;5369;49.586;8.646;2022-12-10T15:38:51;18.83;;;12.70;;
10641;SDS011;5369;49.586;8.646;2022-12-10T15:41:29;19.13;;;13.57;;
10641;SDS011;5369;49.586;8.646;2022-12-10T15:44:00;18.77;;;13.07;;
10641;SDS011;5369;49.586;8.646;2022-12-10T15:46:26;21.00;;;13.80;;
10641;SDS011;5369;49.586;8.646;2022-12-10T15:48:53;19.87;;;14.00;;
10641;SDS011;5369;49.586;8.646;2022-12-10T15:51:19;21.17;;;16.50;;
10641;SDS011;5369;49.586;8.646;2022-12-10T15:53:45;20.03;;;14.57;;
10641;SDS011;5369;49.586;8.646;2022-12-10T15:56:12;20.30;;;13.67;;
10641;SDS011;5369;49.586;8.646;2022-12-10T15:58:38;17.90;;;12.57;;
10641;SDS011;5369;49.586;8.646;2022-12-10T16:01:06;23.13;;;13.90;;
10641;SDS011;5369;49.586;8.646;2022-12-10T16:03:32;19.55;;;15.70;;
10641;SDS011;5369;49.586;8.646;2022-12-10T16:05:58;18.90;;;14.95;;
10641;SDS011;5369;49.586;8.646;2022-12-10T16:08:28;19.87;;;13.60;;
10641;SDS011;5369;49.586;8.646;2022-12-10T16:10:59;19.85;;;14.82;;
10641;SDS011;5369;49.586;8.646;2022-12-10T16:13:36;18.47;;;14.57;;
10641;SDS011;5369;49.586;8.646;2022-12-10T16:16:06;18.97;;;12.93;;
10641;SDS011;5369;49.586;8.646;2022-12-10T16:18:33;17.33;;;12.80;;
10641;SDS011;5369;49.586;8.646;2022-12-10T16:21:01;19.50;;;12.67;;
10641;SDS011;5369;49.586;8.646;2022-12-10T16:23:27;16.03;;;11.80;;